createdAt,value
2022-09-03T00:00:02.875Z,4.40
2022-09-03T00:01:15.490Z,5.40
2022-09-03T00:02:22.773Z,5.47
2022-09-03T00:03:34.057Z,4.82
2022-09-03T00:04:43.867Z,4.53
2022-09-03T00:05:52.341Z,4.40
2022-09-03T00:07:02.857Z,3.53
2022-09-03T00:08:11.238Z,3.95
2022-09-03T00:09:17.387Z,3.70
2022-09-03T00:10:27.716Z,4.13
2022-09-03T00:11:33.746Z,3.83
2022-09-03T00:12:41.308Z,3.60
2022-09-03T00:13:47.604Z,3.30
2022-09-03T00:14:56.302Z,4.22
2022-09-03T00:15:59.780Z,4.00
2022-09-03T00:17:06.876Z,4.68
2022-09-03T00:18:14.128Z,4.40
2022-09-03T00:19:23.337Z,4.50
2022-09-03T00:20:28.744Z,4.05
2022-09-03T00:21:38.687Z,3.92
2022-09-03T00:22:44.945Z,4.07
2022-09-03T00:23:49.776Z,3.70
2022-09-03T00:24:52.916Z,3.38
2022-09-03T00:26:02.645Z,4.13
2022-09-03T00:27:11.420Z,4.32
2022-09-03T00:28:19.030Z,3.50
2022-09-03T00:29:27.578Z,3.92
2022-09-03T00:30:31.202Z,3.55
2022-09-03T00:31:37.605Z,3.40
2022-09-03T00:32:47.533Z,4.22
2022-09-03T00:33:53.013Z,4.00
2022-09-03T00:35:02.294Z,3.40
2022-09-03T00:36:13.233Z,3.10
2022-09-03T00:37:16.747Z,3.58
2022-09-03T00:38:18.961Z,3.97
2022-09-03T00:39:25.056Z,3.13
2022-09-03T00:40:42.435Z,3.55
2022-09-03T00:41:59.411Z,2.92
2022-09-03T00:43:12.128Z,3.17
2022-09-03T00:44:31.482Z,3.05
2022-09-03T00:45:39.560Z,3.13
2022-09-03T00:46:48.092Z,3.42
2022-09-03T00:48:00.334Z,3.92
2022-09-03T00:49:26.779Z,3.20
2022-09-03T00:50:42.457Z,3.70
2022-09-03T00:52:11.339Z,3.78
2022-09-03T00:53:20.124Z,4.25
2022-09-03T00:54:31.760Z,4.50
2022-09-03T00:55:47.404Z,3.55
2022-09-03T00:57:00.462Z,3.80
2022-09-03T00:58:37.157Z,3.80
2022-09-03T00:59:49.449Z,3.60
2022-09-03T01:00:53.964Z,3.53
2022-09-03T01:02:06.098Z,3.70
2022-09-03T01:03:13.681Z,3.63
2022-09-03T01:04:35.456Z,3.50
2022-09-03T01:06:02.062Z,3.83
2022-09-03T01:07:14.212Z,3.42
2022-09-03T01:08:33.843Z,3.25
2022-09-03T01:09:50.124Z,4.05
2022-09-03T01:10:57.869Z,3.20
2022-09-03T01:12:13.413Z,3.33
2022-09-03T01:13:21.705Z,3.50
2022-09-03T01:14:35.833Z,3.05
2022-09-03T01:15:50.001Z,3.60
2022-09-03T01:16:58.808Z,3.40
2022-09-03T01:18:13.022Z,3.40
2022-09-03T01:19:39.202Z,3.13
2022-09-03T01:20:52.601Z,3.17
2022-09-03T01:22:20.876Z,3.50
2022-09-03T01:23:41.482Z,3.40
2022-09-03T01:25:09.172Z,3.25
2022-09-03T01:26:32.393Z,3.30
2022-09-03T01:27:44.664Z,3.70
2022-09-03T01:29:00.769Z,3.78
2022-09-03T01:30:06.102Z,4.00
2022-09-03T01:31:21.125Z,3.78
2022-09-03T01:32:31.405Z,3.50
2022-09-03T01:33:40.315Z,4.00
2022-09-03T01:34:54.091Z,3.60
2022-09-03T01:36:07.810Z,3.30
2022-09-03T01:37:20.057Z,3.25
2022-09-03T01:38:32.873Z,2.95
2022-09-03T01:39:45.108Z,3.20
2022-09-03T01:40:57.944Z,3.10
2022-09-03T01:42:15.939Z,3.40
2022-09-03T01:43:39.198Z,3.40
2022-09-03T01:45:12.700Z,3.08
2022-09-03T01:46:24.758Z,3.47
2022-09-03T01:47:34.970Z,3.95
2022-09-03T01:48:44.589Z,3.45
2022-09-03T01:49:57.807Z,3.60
2022-09-03T01:51:11.013Z,3.10
2022-09-03T01:52:17.285Z,3.20
2022-09-03T01:53:32.174Z,3.35
2022-09-03T01:55:02.885Z,2.85
2022-09-03T01:56:19.314Z,3.10
2022-09-03T01:57:47.639Z,3.17
2022-09-03T01:58:56.973Z,3.38
2022-09-03T02:00:04.914Z,3.40
2022-09-03T02:01:31.398Z,3.20
2022-09-03T02:02:35.358Z,3.20
2022-09-03T02:03:42.685Z,3.75
2022-09-03T02:04:59.408Z,3.63
2022-09-03T02:06:03.750Z,3.50
2022-09-03T02:07:06.798Z,4.10
2022-09-03T02:08:11.546Z,3.85
2022-09-03T02:09:14.039Z,3.67
2022-09-03T02:10:20.721Z,3.80
2022-09-03T02:11:23.965Z,3.70
2022-09-03T02:12:26.129Z,3.85
2022-09-03T02:13:32.884Z,3.47
2022-09-03T02:14:36.175Z,3.20
2022-09-03T02:15:42.894Z,3.75
2022-09-03T02:16:46.563Z,4.15
2022-09-03T02:17:52.915Z,4.05
2022-09-03T02:18:59.373Z,3.60
2022-09-03T02:20:06.736Z,3.70
2022-09-03T02:21:11.152Z,3.70
2022-09-03T02:22:13.482Z,4.20
2022-09-03T02:23:17.487Z,3.75
2022-09-03T02:24:19.627Z,4.40
2022-09-03T02:25:27.593Z,4.55
2022-09-03T02:26:29.664Z,3.70
2022-09-03T02:27:32.906Z,3.80
2022-09-03T02:28:35.166Z,3.90
2022-09-03T02:29:38.324Z,4.38
2022-09-03T02:30:40.831Z,3.30
2022-09-03T02:31:44.241Z,3.70
2022-09-03T02:32:47.951Z,3.72
2022-09-03T02:33:52.036Z,3.83
2022-09-03T02:34:54.132Z,4.93
2022-09-03T02:35:57.427Z,4.30
2022-09-03T02:36:59.537Z,4.30
2022-09-03T02:38:11.617Z,4.32
2022-09-03T02:39:15.011Z,4.50
2022-09-03T02:40:18.856Z,4.50
2022-09-03T02:41:20.978Z,4.22
2022-09-03T02:42:24.002Z,3.78
2022-09-03T02:43:39.388Z,3.80
2022-09-03T02:44:46.601Z,3.67
2022-09-03T02:45:53.295Z,3.35
2022-09-03T02:46:59.325Z,3.85
2022-09-03T02:48:04.032Z,3.65
2022-09-03T02:49:07.496Z,3.75
2022-09-03T02:50:10.597Z,4.20
2022-09-03T02:51:14.594Z,4.00
2022-09-03T02:52:16.857Z,3.88
2022-09-03T02:53:20.042Z,3.80
2022-09-03T02:54:22.065Z,3.60
2022-09-03T02:55:25.138Z,3.72
2022-09-03T02:56:27.844Z,3.72
2022-09-03T02:57:30.865Z,3.78
2022-09-03T02:58:33.081Z,4.45
2022-09-03T02:59:36.493Z,4.45
2022-09-03T03:00:38.956Z,4.25
2022-09-03T03:01:42.046Z,4.20
2022-09-03T03:02:44.371Z,3.45
2022-09-03T03:03:49.240Z,3.30
2022-09-03T03:04:51.365Z,3.63
2022-09-03T03:05:56.546Z,3.97
2022-09-03T03:06:58.646Z,4.50
2022-09-03T03:08:01.691Z,3.80
2022-09-03T03:09:05.930Z,3.90
2022-09-03T03:10:10.034Z,3.63
2022-09-03T03:11:12.202Z,3.40
2022-09-03T03:12:17.264Z,3.70
2022-09-03T03:13:19.332Z,4.00
2022-09-03T03:14:23.053Z,3.60
2022-09-03T03:15:25.309Z,3.83
2022-09-03T03:16:28.369Z,3.70
2022-09-03T03:17:31.136Z,4.60
2022-09-03T03:18:35.006Z,3.53
2022-09-03T03:19:38.444Z,4.00
2022-09-03T03:20:42.728Z,3.95
2022-09-03T03:21:44.814Z,3.63
2022-09-03T03:22:47.917Z,3.95
2022-09-03T03:23:50.063Z,4.35
2022-09-03T03:24:55.345Z,3.75
2022-09-03T03:26:01.605Z,4.15
2022-09-03T03:27:07.265Z,3.70
2022-09-03T03:28:09.309Z,3.72
2022-09-03T03:29:18.500Z,4.07
2022-09-03T03:30:21.380Z,3.38
2022-09-03T03:31:24.974Z,3.83
2022-09-03T03:32:27.221Z,4.00
2022-09-03T03:33:30.273Z,3.50
2022-09-03T03:34:32.268Z,3.95
2022-09-03T03:35:36.881Z,3.90
2022-09-03T03:36:39.961Z,4.10
2022-09-03T03:37:41.965Z,3.70
2022-09-03T03:38:46.201Z,3.40
2022-09-03T03:39:48.289Z,4.35
2022-09-03T03:40:51.363Z,3.67
2022-09-03T03:41:54.358Z,3.50
2022-09-03T03:42:58.166Z,3.35
2022-09-03T03:44:03.204Z,3.83
2022-09-03T03:45:06.620Z,3.88
2022-09-03T03:46:10.675Z,3.58
2022-09-03T03:47:12.869Z,4.05
2022-09-03T03:48:15.958Z,3.88
2022-09-03T03:49:19.099Z,3.55
2022-09-03T03:50:21.218Z,4.00
2022-09-03T03:51:25.593Z,4.35
2022-09-03T03:52:28.190Z,4.55
2022-09-03T03:53:31.215Z,3.40
2022-09-03T03:54:33.221Z,4.03
2022-09-03T03:55:36.350Z,3.88
2022-09-03T03:56:38.474Z,4.55
2022-09-03T03:57:41.457Z,3.83
2022-09-03T03:58:44.281Z,4.07
2022-09-03T03:59:47.402Z,4.60
2022-09-03T04:00:50.089Z,4.35
2022-09-03T04:01:55.334Z,3.80
2022-09-03T04:02:59.954Z,3.90
2022-09-03T04:04:02.194Z,3.78
2022-09-03T04:05:05.921Z,4.40
2022-09-03T04:06:11.207Z,3.95
2022-09-03T04:07:15.637Z,3.97
2022-09-03T04:08:17.646Z,3.40
2022-09-03T04:09:20.765Z,4.20
2022-09-03T04:10:22.838Z,4.55
2022-09-03T04:11:27.092Z,4.72
2022-09-03T04:12:29.125Z,3.97
2022-09-03T04:13:32.689Z,4.38
2022-09-03T04:14:35.271Z,4.13
2022-09-03T04:15:38.301Z,5.55
2022-09-03T04:16:40.459Z,6.60
2022-09-03T04:17:44.126Z,5.90
2022-09-03T04:18:47.229Z,5.72
2022-09-03T04:19:50.615Z,6.22
2022-09-03T04:20:52.921Z,8.43
2022-09-03T04:21:58.746Z,10.57
2022-09-03T04:23:02.520Z,6.47
2022-09-03T04:24:06.324Z,6.15
2022-09-03T04:25:09.257Z,5.60
2022-09-03T04:26:14.420Z,7.15
2022-09-03T04:27:16.513Z,9.43
2022-09-03T04:28:19.599Z,11.27
2022-09-03T04:29:22.970Z,10.68
2022-09-03T04:30:25.066Z,8.52
2022-09-03T04:31:30.926Z,8.80
2022-09-03T04:32:52.694Z,7.43
2022-09-03T04:33:55.892Z,6.63
2022-09-03T04:34:57.958Z,6.60
2022-09-03T04:36:06.446Z,9.40
2022-09-03T04:37:10.060Z,8.10
2022-09-03T04:38:15.137Z,7.65
2022-09-03T04:39:17.243Z,7.57
2022-09-03T04:40:20.245Z,7.25
2022-09-03T04:41:25.808Z,8.65
2022-09-03T04:42:28.337Z,9.40
2022-09-03T04:43:31.588Z,15.07
2022-09-03T04:44:37.410Z,20.38
2022-09-03T04:45:40.508Z,18.55
2022-09-03T04:46:42.598Z,19.67
2022-09-03T04:47:47.484Z,21.48
2022-09-03T04:48:51.355Z,16.20
2022-09-03T04:49:55.261Z,12.10
2022-09-03T04:51:05.268Z,12.55
2022-09-03T04:52:10.041Z,11.95
2022-09-03T04:53:13.466Z,10.90
2022-09-03T04:54:16.574Z,7.00
2022-09-03T04:55:19.479Z,6.65
2022-09-03T04:56:24.851Z,5.97
2022-09-03T04:57:27.006Z,4.03
2022-09-03T04:58:30.397Z,4.25
2022-09-03T04:59:32.423Z,3.63
2022-09-03T05:00:37.334Z,3.30
2022-09-03T05:01:40.669Z,3.95
2022-09-03T05:02:43.768Z,4.13
2022-09-03T05:03:46.357Z,3.85
2022-09-03T05:04:49.500Z,4.10
2022-09-03T05:05:54.786Z,4.13
2022-09-03T05:06:57.789Z,4.70
2022-09-03T05:08:01.445Z,4.75
2022-09-03T05:09:06.714Z,4.55
2022-09-03T05:10:13.011Z,4.88
2022-09-03T05:11:16.270Z,4.28
2022-09-03T05:12:18.284Z,3.65
2022-09-03T05:13:21.385Z,3.40
2022-09-03T05:14:23.458Z,3.80
2022-09-03T05:15:26.516Z,3.10
2022-09-03T05:16:30.835Z,3.65
2022-09-03T05:17:37.284Z,3.40
2022-09-03T05:18:42.343Z,3.35
2022-09-03T05:19:45.332Z,3.35
2022-09-03T05:20:47.357Z,3.50
2022-09-03T05:21:50.428Z,3.05
2022-09-03T05:22:52.535Z,2.83
2022-09-03T05:23:55.616Z,2.92
2022-09-03T05:24:59.009Z,2.60
2022-09-03T05:26:05.973Z,3.17
2022-09-03T05:27:11.101Z,2.80
2022-09-03T05:28:14.122Z,2.80
2022-09-03T05:29:16.197Z,2.67
2022-09-03T05:30:21.845Z,2.50
2022-09-03T05:31:26.464Z,3.22
2022-09-03T05:32:31.677Z,2.70
2022-09-03T05:33:34.840Z,3.10
2022-09-03T05:34:37.937Z,2.65
2022-09-03T05:35:41.054Z,2.30
2022-09-03T05:36:44.178Z,2.50
2022-09-03T05:37:46.217Z,1.95
2022-09-03T05:38:49.886Z,2.88
2022-09-03T05:39:52.029Z,2.50
2022-09-03T05:41:00.542Z,2.50
2022-09-03T05:42:02.605Z,3.30
2022-09-03T05:43:08.475Z,2.63
2022-09-03T05:44:10.914Z,2.13
2022-09-03T05:45:13.929Z,2.55
2022-09-03T05:46:18.622Z,2.45
2022-09-03T05:47:21.769Z,2.65
2022-09-03T05:48:23.898Z,2.38
2022-09-03T05:49:26.962Z,1.95
2022-09-03T05:50:29.295Z,2.60
2022-09-03T05:51:33.289Z,3.10
2022-09-03T05:52:35.937Z,2.92
2022-09-03T05:53:41.323Z,2.60
2022-09-03T05:54:44.375Z,2.95
2022-09-03T05:55:57.424Z,2.83
2022-09-03T05:57:00.936Z,3.70
2022-09-03T05:58:02.989Z,3.72
2022-09-03T05:59:09.217Z,2.90
2022-09-03T06:00:15.281Z,3.20
2022-09-03T06:01:19.937Z,3.13
2022-09-03T06:02:23.697Z,3.50
2022-09-03T06:03:26.402Z,3.60
2022-09-03T06:04:29.617Z,3.25
2022-09-03T06:05:31.641Z,3.50
2022-09-03T06:06:36.662Z,3.60
2022-09-03T06:07:40.118Z,3.75
2022-09-03T06:08:44.910Z,4.45
2022-09-03T06:09:47.045Z,3.50
2022-09-03T06:10:50.130Z,3.90
2022-09-03T06:11:54.348Z,3.80
2022-09-03T06:13:02.921Z,3.80
2022-09-03T06:14:06.664Z,3.15
2022-09-03T06:15:10.942Z,3.17
2022-09-03T06:16:13.376Z,3.20
2022-09-03T06:17:16.505Z,3.20
2022-09-03T06:18:18.536Z,3.00
2022-09-03T06:19:21.738Z,3.17
2022-09-03T06:20:27.752Z,2.80
2022-09-03T06:21:31.341Z,2.90
2022-09-03T06:22:33.410Z,2.60
2022-09-03T06:23:37.225Z,2.85
2022-09-03T06:24:42.116Z,2.80
2022-09-03T06:25:44.099Z,3.00
2022-09-03T06:26:47.858Z,3.20
2022-09-03T06:27:51.462Z,2.80
2022-09-03T06:28:55.194Z,2.95
2022-09-03T06:29:59.533Z,2.90
2022-09-03T06:31:03.100Z,3.22
2022-09-03T06:32:06.281Z,2.75
2022-09-03T06:33:08.844Z,2.90
2022-09-03T06:34:12.522Z,2.40
2022-09-03T06:35:15.406Z,3.30
2022-09-03T06:36:20.738Z,2.60
2022-09-03T06:37:22.777Z,2.60
2022-09-03T06:38:26.760Z,3.67
2022-09-03T06:39:30.714Z,2.75
2022-09-03T06:40:33.218Z,3.53
2022-09-03T06:41:36.625Z,2.95
2022-09-03T06:42:38.640Z,2.92
2022-09-03T06:43:43.918Z,3.25
2022-09-03T06:44:45.906Z,3.03
2022-09-03T06:45:56.643Z,2.88
2022-09-03T06:47:01.571Z,3.53
2022-09-03T06:48:04.002Z,3.60
2022-09-03T06:49:08.437Z,3.22
2022-09-03T06:50:12.008Z,2.92
2022-09-03T06:51:15.929Z,3.72
2022-09-03T06:52:18.946Z,2.80
2022-09-03T06:53:22.870Z,3.30
2022-09-03T06:54:25.910Z,2.88
2022-09-03T06:55:27.938Z,3.05
2022-09-03T06:56:37.295Z,2.95
2022-09-03T06:57:41.819Z,3.03
2022-09-03T06:58:47.731Z,3.25
2022-09-03T06:59:49.772Z,2.47
2022-09-03T07:00:54.078Z,2.78
2022-09-03T07:01:58.105Z,3.30
2022-09-03T07:03:03.015Z,2.70
2022-09-03T07:04:05.888Z,3.22
2022-09-03T07:05:10.134Z,2.55
2022-09-03T07:06:14.669Z,3.25
2022-09-03T07:07:18.598Z,3.25
2022-09-03T07:08:20.731Z,2.90
2022-09-03T07:09:23.810Z,3.17
2022-09-03T07:10:27.389Z,2.80
2022-09-03T07:11:33.745Z,3.00
2022-09-03T07:12:37.671Z,3.10
2022-09-03T07:13:41.948Z,3.05
2022-09-03T07:14:48.108Z,2.58
2022-09-03T07:16:00.306Z,3.35
2022-09-03T07:17:03.353Z,2.85
2022-09-03T07:18:05.463Z,2.60
2022-09-03T07:19:09.282Z,3.13
2022-09-03T07:20:11.367Z,4.32
2022-09-03T07:21:15.944Z,3.58
2022-09-03T07:22:18.950Z,2.72
2022-09-03T07:23:20.994Z,3.00
2022-09-03T07:24:24.893Z,2.83
2022-09-03T07:25:27.243Z,2.80
2022-09-03T07:26:32.247Z,3.80
2022-09-03T07:27:35.673Z,3.50
2022-09-03T07:28:40.227Z,3.30
2022-09-03T07:29:42.226Z,3.30
2022-09-03T07:30:46.689Z,3.45
2022-09-03T07:31:51.738Z,3.10
2022-09-03T07:32:55.416Z,3.42
2022-09-03T07:33:58.933Z,4.10
2022-09-03T07:35:02.402Z,3.45
2022-09-03T07:36:06.263Z,3.72
2022-09-03T07:37:09.288Z,3.42
2022-09-03T07:38:11.602Z,3.30
2022-09-03T07:39:16.440Z,3.70
2022-09-03T07:40:19.901Z,3.90
2022-09-03T07:41:26.957Z,3.72
2022-09-03T07:42:31.093Z,4.07
2022-09-03T07:43:37.170Z,4.00
2022-09-03T07:44:39.287Z,3.70
2022-09-03T07:45:45.829Z,3.30
2022-09-03T07:46:51.918Z,3.30
2022-09-03T07:47:54.320Z,4.35
2022-09-03T07:48:59.709Z,3.55
2022-09-03T07:50:01.845Z,3.20
2022-09-03T07:51:05.032Z,3.60
2022-09-03T07:52:07.950Z,3.50
2022-09-03T07:53:16.943Z,3.10
2022-09-03T07:54:20.392Z,4.30
2022-09-03T07:55:23.761Z,3.90
2022-09-03T07:56:27.045Z,3.00
2022-09-03T07:57:30.134Z,2.95
2022-09-03T07:58:33.553Z,3.90
2022-09-03T07:59:37.035Z,3.72
2022-09-03T08:00:39.545Z,3.70
2022-09-03T08:01:43.058Z,3.90
2022-09-03T08:02:46.664Z,3.80
2022-09-03T08:03:51.858Z,3.42
2022-09-03T08:04:53.933Z,3.08
2022-09-03T08:06:03.191Z,3.20
2022-09-03T08:07:05.398Z,3.15
2022-09-03T08:08:08.535Z,3.50
2022-09-03T08:09:13.633Z,3.45
2022-09-03T08:10:17.562Z,4.03
2022-09-03T08:11:22.379Z,3.63
2022-09-03T08:12:25.898Z,3.75
2022-09-03T08:13:28.478Z,2.95
2022-09-03T08:16:07.117Z,4.43
2022-09-03T08:17:12.803Z,3.35
2022-09-03T08:18:16.460Z,4.35
2022-09-03T08:19:19.945Z,4.55
2022-09-03T08:20:22.520Z,4.00
2022-09-03T08:21:27.497Z,4.72
2022-09-03T08:22:31.084Z,4.00
2022-09-03T08:23:34.097Z,4.13
2022-09-03T08:24:37.117Z,4.25
2022-09-03T08:25:39.132Z,4.10
2022-09-03T08:26:49.121Z,3.95
2022-09-03T08:27:54.116Z,3.38
2022-09-03T08:28:57.162Z,4.63
2022-09-03T08:30:00.245Z,4.10
2022-09-03T08:31:06.492Z,3.97
2022-09-03T08:32:09.609Z,4.43
2022-09-03T08:33:11.667Z,4.85
2022-09-03T08:34:17.622Z,4.00
2022-09-03T08:35:21.485Z,4.22
2022-09-03T08:36:26.935Z,4.90
2022-09-03T08:37:29.353Z,3.97
2022-09-03T08:38:33.641Z,3.85
2022-09-03T08:39:36.935Z,3.58
2022-09-03T08:40:39.147Z,3.63
2022-09-03T08:42:14.900Z,4.88
2022-09-03T08:43:18.926Z,4.70
2022-09-03T08:44:26.916Z,4.85
2022-09-03T08:45:30.303Z,4.80
2022-09-03T08:46:48.287Z,4.50
2022-09-03T08:47:59.204Z,3.70
2022-09-03T08:49:01.758Z,4.00
2022-09-03T08:50:12.660Z,3.67
2022-09-03T08:51:18.239Z,3.70
2022-09-03T08:52:43.241Z,4.13
2022-09-03T08:53:56.675Z,3.92
2022-09-03T08:55:14.893Z,3.33
2022-09-03T08:56:25.746Z,3.45
2022-09-03T08:57:33.506Z,3.65
2022-09-03T08:58:38.472Z,3.50
2022-09-03T08:59:41.646Z,3.30
2022-09-03T09:00:50.808Z,4.50
2022-09-03T09:01:59.344Z,4.72
2022-09-03T09:03:18.929Z,3.75
2022-09-03T09:04:35.105Z,3.95
2022-09-03T09:05:51.761Z,4.60
2022-09-03T09:07:00.825Z,3.85
2022-09-03T09:08:10.497Z,4.30
2022-09-03T09:09:25.872Z,3.92
2022-09-03T09:10:37.546Z,4.55
2022-09-03T09:11:52.183Z,3.60
2022-09-03T09:13:06.281Z,3.45
2022-09-03T09:14:16.055Z,3.80
2022-09-03T09:15:31.613Z,3.53
2022-09-03T09:16:42.898Z,3.72
2022-09-03T09:18:02.545Z,3.65
2022-09-03T09:19:26.255Z,3.58
2022-09-03T09:20:36.332Z,3.10
2022-09-03T09:21:48.127Z,3.47
2022-09-03T09:22:55.822Z,3.60
2022-09-03T09:24:03.977Z,3.38
2022-09-03T09:25:14.350Z,3.20
2022-09-03T09:26:18.637Z,3.03
2022-09-03T09:27:21.760Z,2.75
2022-09-03T09:28:25.718Z,2.88
2022-09-03T09:29:33.374Z,3.30
2022-09-03T09:30:35.888Z,2.85
2022-09-03T09:31:39.367Z,3.20
2022-09-03T09:32:41.488Z,3.13
2022-09-03T09:33:44.898Z,2.97
2022-09-03T09:34:51.810Z,3.10
2022-09-03T09:35:55.710Z,3.50
2022-09-03T09:36:59.385Z,3.05
2022-09-03T09:38:02.533Z,3.05
2022-09-03T09:39:09.378Z,2.70
2022-09-03T09:40:12.654Z,2.80
2022-09-03T09:41:18.607Z,2.70
2022-09-03T09:42:22.779Z,3.00
2022-09-03T09:43:25.987Z,3.00
2022-09-03T09:44:28.229Z,2.80
2022-09-03T09:45:34.217Z,2.80
2022-09-03T09:46:41.158Z,2.65
2022-09-03T09:47:43.658Z,3.05
2022-09-03T09:48:51.777Z,2.95
2022-09-03T09:49:58.597Z,3.33
2022-09-03T09:51:12.847Z,3.20
2022-09-03T09:52:17.205Z,2.78
2022-09-03T09:53:21.890Z,3.08
2022-09-03T09:54:28.106Z,2.78
2022-09-03T09:55:32.767Z,2.80
2022-09-03T09:56:35.844Z,2.50
2022-09-03T09:57:40.799Z,2.90
2022-09-03T09:58:43.942Z,2.60
2022-09-03T09:59:46.220Z,2.65
2022-09-03T10:01:02.405Z,2.60
2022-09-03T10:02:11.587Z,2.80
2022-09-03T10:03:18.010Z,2.47
2022-09-03T10:04:24.441Z,2.70
2022-09-03T10:05:30.691Z,2.30
2022-09-03T10:06:51.783Z,2.45
2022-09-03T10:08:00.869Z,2.85
2022-09-03T10:09:14.761Z,2.70
2022-09-03T10:10:21.825Z,2.55
2022-09-03T10:11:25.663Z,2.45
2022-09-03T10:12:35.063Z,2.30
2022-09-03T10:13:42.913Z,2.45
2022-09-03T10:14:53.873Z,2.30
2022-09-03T10:16:02.422Z,2.05
2022-09-03T10:17:11.245Z,2.10
2022-09-03T10:18:28.280Z,2.50
2022-09-03T10:19:39.679Z,2.40
2022-09-03T10:20:51.828Z,2.45
2022-09-03T10:22:03.645Z,2.05
2022-09-03T10:23:18.454Z,1.92
2022-09-03T10:24:39.631Z,2.58
2022-09-03T10:25:54.109Z,2.20
2022-09-03T10:26:58.396Z,2.22
2022-09-03T10:28:02.122Z,2.15
2022-09-03T10:29:06.543Z,2.15
2022-09-03T10:30:10.631Z,1.92
2022-09-03T10:31:30.493Z,2.00
2022-09-03T10:32:44.941Z,2.00
2022-09-03T10:33:55.524Z,2.05
2022-09-03T10:35:08.238Z,1.80
2022-09-03T10:36:18.350Z,2.10
2022-09-03T10:37:27.236Z,2.53
2022-09-03T10:38:34.654Z,2.10
2022-09-03T10:39:52.452Z,2.20
2022-09-03T10:41:08.278Z,2.15
2022-09-03T10:42:25.268Z,2.10
2022-09-03T10:43:58.190Z,2.03
2022-09-03T10:45:08.939Z,2.20
2022-09-03T10:46:19.547Z,2.05
2022-09-03T10:47:49.396Z,2.05
2022-09-03T10:49:11.971Z,2.25
2022-09-03T10:50:18.491Z,2.25
2022-09-03T10:51:26.811Z,2.10
2022-09-03T10:52:41.081Z,2.10
2022-09-03T10:54:09.072Z,2.55
2022-09-03T10:55:19.755Z,2.33
2022-09-03T10:56:33.095Z,1.90
2022-09-03T10:57:46.808Z,2.00
2022-09-03T10:59:02.748Z,2.00
2022-09-03T11:00:10.094Z,2.00
2022-09-03T11:01:22.972Z,2.00
2022-09-03T11:02:46.290Z,2.10
2022-09-03T11:03:55.194Z,1.90
2022-09-03T11:05:03.767Z,1.80
2022-09-03T11:06:12.843Z,2.00
2022-09-03T11:07:21.915Z,1.75
2022-09-03T11:08:28.856Z,1.83
2022-09-03T11:09:40.646Z,1.92
2022-09-03T11:10:49.184Z,2.05
2022-09-03T11:11:56.963Z,1.85
2022-09-03T11:13:05.947Z,1.73
2022-09-03T11:14:10.461Z,1.90
2022-09-03T11:15:20.138Z,2.30
2022-09-03T11:16:27.274Z,1.60
2022-09-03T11:17:34.209Z,1.85
2022-09-03T11:18:44.051Z,1.90
2022-09-03T11:19:51.268Z,1.60
2022-09-03T11:21:07.636Z,1.80
2022-09-03T11:22:13.379Z,2.40
2022-09-03T11:23:20.473Z,1.70
2022-09-03T11:24:26.377Z,1.63
2022-09-03T11:25:32.890Z,1.75
2022-09-03T11:26:37.913Z,1.80
2022-09-03T11:27:56.592Z,1.90
2022-09-03T11:29:02.815Z,1.80
2022-09-03T11:30:07.561Z,1.73
2022-09-03T11:31:25.221Z,1.88
2022-09-03T11:32:40.951Z,2.20
2022-09-03T11:33:48.497Z,1.70
2022-09-03T11:34:55.025Z,1.60
2022-09-03T11:36:00.909Z,2.10
2022-09-03T11:37:20.467Z,1.70
2022-09-03T11:38:27.374Z,1.73
2022-09-03T11:39:36.831Z,2.38
2022-09-03T11:40:57.640Z,1.70
2022-09-03T11:42:06.996Z,2.10
2022-09-03T11:43:15.680Z,2.00
2022-09-03T11:44:19.292Z,1.95
2022-09-03T11:45:35.084Z,1.73
2022-09-03T11:46:42.051Z,1.88
2022-09-03T11:47:45.151Z,1.75
2022-09-03T11:48:49.970Z,1.85
2022-09-03T11:49:54.047Z,2.10
2022-09-03T11:50:57.757Z,2.05
2022-09-03T11:52:01.734Z,1.73
2022-09-03T11:53:12.842Z,2.25
2022-09-03T11:54:28.407Z,1.70
2022-09-03T11:55:38.373Z,2.15
2022-09-03T11:56:50.664Z,2.08
2022-09-03T11:57:52.881Z,1.75
2022-09-03T11:59:07.145Z,2.10
2022-09-03T12:00:13.198Z,2.00
2022-09-03T12:01:18.320Z,1.90
2022-09-03T12:02:28.188Z,1.95
2022-09-03T12:03:44.109Z,1.90
2022-09-03T12:04:54.151Z,1.77
2022-09-03T12:06:25.886Z,2.00
2022-09-03T12:07:47.222Z,2.00
2022-09-03T12:09:28.953Z,1.90
2022-09-03T12:10:41.824Z,1.98
2022-09-03T12:11:59.739Z,1.70
2022-09-03T12:13:24.201Z,1.90
2022-09-03T12:14:34.891Z,1.88
2022-09-03T12:16:00.096Z,2.00
2022-09-03T12:17:19.547Z,2.38
2022-09-03T12:18:24.926Z,1.90
2022-09-03T12:19:37.042Z,2.25
2022-09-03T12:20:39.529Z,2.10
2022-09-03T12:21:42.844Z,1.95
2022-09-03T12:22:46.289Z,1.70
2022-09-03T12:23:55.530Z,2.13
2022-09-03T12:25:11.450Z,2.25
2022-09-03T12:26:16.414Z,1.90
2022-09-03T12:27:24.984Z,1.90
2022-09-03T12:28:29.766Z,2.00
2022-09-03T12:29:33.657Z,1.90
2022-09-03T12:30:36.900Z,2.10
2022-09-03T12:31:48.487Z,1.90
2022-09-03T12:32:52.652Z,2.03
2022-09-03T12:33:59.104Z,2.40
2022-09-03T12:35:14.285Z,1.95
2022-09-03T12:36:17.124Z,2.28
2022-09-03T12:39:10.345Z,2.17
2022-09-03T12:40:19.987Z,1.70
2022-09-03T12:41:27.546Z,1.77
2022-09-03T12:42:33.559Z,1.80
2022-09-03T12:43:37.609Z,1.90
2022-09-03T12:44:42.724Z,1.85
2022-09-03T12:48:36.015Z,2.17
2022-09-03T12:49:40.978Z,2.25
2022-09-03T12:50:49.584Z,1.80
2022-09-03T12:52:06.090Z,1.83
2022-09-03T12:53:12.034Z,1.80
2022-09-03T12:54:16.119Z,1.95
2022-09-03T12:55:30.943Z,1.63
2022-09-03T12:56:33.971Z,2.03
2022-09-03T12:57:45.756Z,2.17
2022-09-03T12:58:53.182Z,2.20
2022-09-03T13:00:00.003Z,1.83
2022-09-03T13:01:09.281Z,1.70
2022-09-03T13:02:19.059Z,1.95
2022-09-03T13:03:27.323Z,1.90
2022-09-03T13:04:33.705Z,1.77
2022-09-03T13:05:44.625Z,1.70
2022-09-03T13:06:53.360Z,1.60
2022-09-03T13:07:58.628Z,1.60
2022-09-03T13:09:05.846Z,1.80
2022-09-03T13:10:24.151Z,1.90
2022-09-03T13:11:27.090Z,1.80
2022-09-03T13:12:33.750Z,1.88
2022-09-03T13:13:40.876Z,1.90
2022-09-03T13:14:44.162Z,1.95
2022-09-03T13:16:15.658Z,1.92
2022-09-03T13:17:35.473Z,1.70
2022-09-03T13:18:45.129Z,1.80
2022-09-03T13:20:13.515Z,2.00
2022-09-03T13:21:23.237Z,1.80
2022-09-03T13:22:34.945Z,1.83
2022-09-03T13:24:07.419Z,1.90
2022-09-03T13:25:16.155Z,1.55
2022-09-03T13:26:28.345Z,1.60
2022-09-03T13:27:38.088Z,1.92
2022-09-03T13:28:58.292Z,1.50
2022-09-03T13:30:08.825Z,2.00
2022-09-03T13:31:27.492Z,1.92
2022-09-03T13:32:40.114Z,1.65
2022-09-03T13:33:48.615Z,1.98
2022-09-03T13:34:54.748Z,1.60
2022-09-03T13:36:03.619Z,1.98
2022-09-03T13:37:21.589Z,1.60
2022-09-03T13:38:37.116Z,1.75
2022-09-03T13:39:47.052Z,1.92
2022-09-03T13:40:56.699Z,1.88
2022-09-03T13:42:06.950Z,1.70
2022-09-03T13:43:23.282Z,1.70
2022-09-03T13:44:40.703Z,1.90
2022-09-03T13:45:52.084Z,1.65
2022-09-03T13:46:59.107Z,1.42
2022-09-03T13:48:28.340Z,2.05
2022-09-03T13:50:02.042Z,1.83
2022-09-03T13:51:13.086Z,2.05
2022-09-03T13:52:24.257Z,1.90
2022-09-03T13:53:37.775Z,1.85
2022-09-03T13:54:49.882Z,2.20
2022-09-03T13:55:57.109Z,2.05
2022-09-03T13:57:03.036Z,1.90
2022-09-03T13:58:13.254Z,2.75
2022-09-03T13:59:25.182Z,2.47
2022-09-03T14:00:33.117Z,2.10
2022-09-03T14:01:52.252Z,2.10
2022-09-03T14:03:03.867Z,1.85
2022-09-03T14:04:16.097Z,2.13
2022-09-03T14:05:32.463Z,2.20
2022-09-03T14:06:42.504Z,2.15
2022-09-03T14:07:54.416Z,2.35
2022-09-03T14:09:12.810Z,2.10
2022-09-03T14:10:22.991Z,2.47
2022-09-03T14:11:32.071Z,2.35
2022-09-03T14:12:45.686Z,2.75
2022-09-03T14:14:11.724Z,2.45
2022-09-03T14:15:21.951Z,2.30
2022-09-03T14:16:35.733Z,2.30
2022-09-03T14:17:45.611Z,2.67
2022-09-03T14:18:54.741Z,2.47
2022-09-03T14:20:03.679Z,2.40
2022-09-03T14:21:11.929Z,2.58
2022-09-03T14:22:20.665Z,2.17
2022-09-03T14:23:31.440Z,2.35
2022-09-03T14:24:46.234Z,2.70
2022-09-03T14:25:54.365Z,2.88
2022-09-03T14:26:59.361Z,2.50
2022-09-03T14:28:14.782Z,2.80
2022-09-03T14:29:19.329Z,2.30
2022-09-03T14:30:40.739Z,2.30
2022-09-03T14:32:16.672Z,2.60
2022-09-03T14:33:28.833Z,2.38
2022-09-03T14:34:44.470Z,2.10
2022-09-03T14:36:00.387Z,2.63
2022-09-03T14:37:09.000Z,2.40
2022-09-03T14:38:47.211Z,2.50
2022-09-03T14:39:54.996Z,1.75
2022-09-03T14:41:08.223Z,2.92
2022-09-03T14:42:45.299Z,2.40
2022-09-03T14:44:12.955Z,3.15
2022-09-03T14:45:47.058Z,2.67
2022-09-03T14:47:00.351Z,2.13
2022-09-03T14:48:17.401Z,2.10
2022-09-03T14:49:50.888Z,2.00
2022-09-03T14:51:07.624Z,2.35
2022-09-03T14:52:35.067Z,2.30
2022-09-03T14:54:03.698Z,2.78
2022-09-03T14:55:26.832Z,2.40
2022-09-03T14:56:39.711Z,2.42
2022-09-03T14:58:11.412Z,2.40
2022-09-03T14:59:34.812Z,2.15
2022-09-03T15:00:50.804Z,2.00
2022-09-03T15:02:22.008Z,2.17
2022-09-03T15:04:05.750Z,1.98
2022-09-03T15:05:13.623Z,2.30
2022-09-03T15:06:31.141Z,2.03
2022-09-03T15:07:37.170Z,2.10
2022-09-03T15:08:49.678Z,2.25
2022-09-03T15:10:02.429Z,2.08
2022-09-03T15:11:14.642Z,2.05
2022-09-03T15:12:23.900Z,2.05
2022-09-03T15:13:30.866Z,2.10